sensor_id;sensor_type;location;lat;lon;timestamp;pressure;altitude;pressure_sealevel;temperature;humidity
39699;BME280;25372;50.582;12.250;2023-04-28T00:05:00;100109.50;;;1.05;80.97
39699;BME280;25372;50.582;12.250;2023-04-28T00:15:23;100100.31;;;1.34;79.72
39699;BME280;25372;50.582;12.250;2023-04-28T00:25:43;100094.44;;;1.25;80.59
39699;BME280;25372;50.582;12.250;2023-04-28T00:36:06;100073.34;;;1.44;80.19
39699;BME280;25372;50.582;12.250;2023-04-28T00:46:29;100060.00;;;1.22;80.70
39699;BME280;25372;50.582;12.250;2023-04-28T00:56:53;100048.22;;;1.08;81.42
39699;BME280;25372;50.582;12.250;2023-04-28T01:07:14;100034.53;;;1.03;81.58
39699;BME280;25372;50.582;12.250;2023-04-28T01:17:37;100027.25;;;1.22;81.39
39699;BME280;25372;50.582;12.250;2023-04-28T01:27:59;100022.09;;;1.19;81.66
39699;BME280;25372;50.582;12.250;2023-04-28T01:38:21;100007.56;;;1.53;78.32
39699;BME280;25372;50.582;12.250;2023-04-28T01:48:44;100002.78;;;1.36;79.87
39699;BME280;25372;50.582;12.250;2023-04-28T01:59:05;99984.38;;;1.48;79.90
39699;BME280;25372;50.582;12.250;2023-04-28T02:09:29;99993.31;;;0.94;81.13
39699;BME280;25372;50.582;12.250;2023-04-28T02:19:54;99971.44;;;1.09;81.09
39699;BME280;25372;50.582;12.250;2023-04-28T02:30:17;99969.31;;;0.87;80.60
39699;BME280;25372;50.582;12.250;2023-04-28T02:40:38;99961.56;;;1.27;81.83
39699;BME280;25372;50.582;12.250;2023-04-28T02:51:00;99944.84;;;1.42;80.11
39699;BME280;25372;50.582;12.250;2023-04-28T03:01:21;99944.66;;;1.84;80.01
39699;BME280;25372;50.582;12.250;2023-04-28T03:11:43;99938.81;;;2.09;80.15
39699;BME280;25372;50.582;12.250;2023-04-28T03:22:04;99915.28;;;1.85;79.85
39699;BME280;25372;50.582;12.250;2023-04-28T03:32:27;99900.69;;;1.81;78.97
39699;BME280;25372;50.582;12.250;2023-04-28T03:42:48;99897.84;;;1.92;77.45
39699;BME280;25372;50.582;12.250;2023-04-28T03:53:18;99900.75;;;2.11;76.97
39699;BME280;25372;50.582;12.250;2023-04-28T04:03:41;99894.44;;;2.51;75.27
39699;BME280;25372;50.582;12.250;2023-04-28T04:14:03;99883.44;;;3.02;72.93
39699;BME280;25372;50.582;12.250;2023-04-28T04:24:25;99857.13;;;3.40;70.35
39699;BME280;25372;50.582;12.250;2023-04-28T04:34:48;99855.38;;;3.91;67.81
39699;BME280;25372;50.582;12.250;2023-04-28T04:45:09;99843.56;;;4.30;66.45
39699;BME280;25372;50.582;12.250;2023-04-28T04:55:31;99841.84;;;4.53;65.34
39699;BME280;25372;50.582;12.250;2023-04-28T05:05:53;99828.97;;;4.50;66.41
39699;BME280;25372;50.582;12.250;2023-04-28T05:16:32;99832.97;;;4.58;65.32
39699;BME280;25372;50.582;12.250;2023-04-28T05:27:03;99817.09;;;5.09;64.60
39699;BME280;25372;50.582;12.250;2023-04-28T05:37:26;99804.59;;;5.78;63.50
39699;BME280;25372;50.582;12.250;2023-04-28T05:47:46;99791.53;;;5.99;62.36
39699;BME280;25372;50.582;12.250;2023-04-28T05:58:09;99795.66;;;6.43;61.94
39699;BME280;25372;50.582;12.250;2023-04-28T06:08:30;99776.31;;;7.37;60.31
39699;BME280;25372;50.582;12.250;2023-04-28T06:18:53;99795.91;;;8.61;55.80
39699;BME280;25372;50.582;12.250;2023-04-28T06:29:14;99780.59;;;8.37;57.41
39699;BME280;25372;50.582;12.250;2023-04-28T06:39:36;99769.78;;;8.60;55.77
39699;BME280;25372;50.582;12.250;2023-04-28T06:49:57;99758.97;;;8.82;55.11
39699;BME280;25372;50.582;12.250;2023-04-28T07:00:19;99752.53;;;9.47;53.18
39699;BME280;25372;50.582;12.250;2023-04-28T07:10:40;99750.38;;;9.69;53.53
39699;BME280;25372;50.582;12.250;2023-04-28T07:21:02;99739.69;;;10.28;51.52
39699;BME280;25372;50.582;12.250;2023-04-28T07:31:23;99726.16;;;10.49;52.83
39699;BME280;25372;50.582;12.250;2023-04-28T07:41:45;99712.31;;;11.13;50.88
39699;BME280;25372;50.582;12.250;2023-04-28T07:52:06;99703.25;;;12.07;49.47
39699;BME280;25372;50.582;12.250;2023-04-28T08:02:29;99678.34;;;12.24;49.65
39699;BME280;25372;50.582;12.250;2023-04-28T08:12:52;99677.06;;;12.65;47.51
39699;BME280;25372;50.582;12.250;2023-04-28T08:23:14;99680.06;;;12.61;47.92
39699;BME280;25372;50.582;12.250;2023-04-28T08:33:35;99685.22;;;13.55;44.76
39699;BME280;25372;50.582;12.250;2023-04-28T08:43:58;99661.28;;;13.58;46.27
39699;BME280;25372;50.582;12.250;2023-04-28T08:54:19;99653.72;;;14.63;45.06
39699;BME280;25372;50.582;12.250;2023-04-28T09:04:42;99647.63;;;15.87;44.81
39699;BME280;25372;50.582;12.250;2023-04-28T09:15:03;99628.38;;;15.24;44.01
39699;BME280;25372;50.582;12.250;2023-04-28T09:25:29;99624.22;;;14.79;44.22
39699;BME280;25372;50.582;12.250;2023-04-28T09:35:51;99628.22;;;15.66;43.92
39699;BME280;25372;50.582;12.250;2023-04-28T09:46:27;99628.44;;;16.14;41.38
39699;BME280;25372;50.582;12.250;2023-04-28T09:56:49;99622.25;;;15.74;42.10
39699;BME280;25372;50.582;12.250;2023-04-28T10:07:12;99608.44;;;14.89;43.73
39699;BME280;25372;50.582;12.250;2023-04-28T10:17:35;99626.88;;;14.58;49.01
39699;BME280;25372;50.582;12.250;2023-04-28T10:27:58;99636.66;;;13.00;58.15
39699;BME280;25372;50.582;12.250;2023-04-28T10:38:19;99658.09;;;12.13;64.91
39699;BME280;25372;50.582;12.250;2023-04-28T10:49:06;99654.81;;;10.96;74.60
39699;BME280;25372;50.582;12.250;2023-04-28T10:59:28;99665.13;;;10.86;76.30
39699;BME280;25372;50.582;12.250;2023-04-28T11:09:50;99659.81;;;11.38;73.96
39699;BME280;25372;50.582;12.250;2023-04-28T11:20:12;99667.03;;;12.10;71.13
39699;BME280;25372;50.582;12.250;2023-04-28T11:30:35;99675.88;;;12.69;70.15
39699;BME280;25372;50.582;12.250;2023-04-28T11:40:56;99671.09;;;11.90;71.29
39699;BME280;25372;50.582;12.250;2023-04-28T11:51:37;99672.66;;;12.30;69.48
39699;BME280;25372;50.582;12.250;2023-04-28T12:01:59;99659.34;;;13.60;65.06
39699;BME280;25372;50.582;12.250;2023-04-28T12:12:29;99660.03;;;13.39;65.69
39699;BME280;25372;50.582;12.250;2023-04-28T12:22:52;99640.97;;;13.13;64.46
39699;BME280;25372;50.582;12.250;2023-04-28T12:33:24;99638.69;;;13.08;61.89
39699;BME280;25372;50.582;12.250;2023-04-28T12:43:45;99640.47;;;12.85;63.47
39699;BME280;25372;50.582;12.250;2023-04-28T12:54:08;99623.38;;;13.59;63.70
39699;BME280;25372;50.582;12.250;2023-04-28T13:04:29;99621.22;;;13.07;66.02
39699;BME280;25372;50.582;12.250;2023-04-28T13:14:52;99611.75;;;12.35;67.20
39699;BME280;25372;50.582;12.250;2023-04-28T13:25:13;99599.94;;;12.16;68.38
39699;BME280;25372;50.582;12.250;2023-04-28T13:35:36;99598.06;;;11.56;71.76
39699;BME280;25372;50.582;12.250;2023-04-28T13:45:58;99572.53;;;11.70;71.60
39699;BME280;25372;50.582;12.250;2023-04-28T13:56:20;99567.16;;;11.47;73.03
39699;BME280;25372;50.582;12.250;2023-04-28T14:06:41;99560.63;;;11.15;73.33
39699;BME280;25372;50.582;12.250;2023-04-28T14:17:03;99538.78;;;11.02;74.31
39699;BME280;25372;50.582;12.250;2023-04-28T14:27:25;99530.81;;;11.41;72.29
39699;BME280;25372;50.582;12.250;2023-04-28T14:37:50;99521.59;;;11.95;70.21
39699;BME280;25372;50.582;12.250;2023-04-28T14:48:11;99511.31;;;11.92;71.22
39699;BME280;25372;50.582;12.250;2023-04-28T14:58:35;99505.09;;;12.18;70.31
39699;BME280;25372;50.582;12.250;2023-04-28T15:08:56;99498.03;;;12.29;69.10
39699;BME280;25372;50.582;12.250;2023-04-28T15:19:17;99487.03;;;12.24;69.43
39699;BME280;25372;50.582;12.250;2023-04-28T15:29:38;99483.78;;;12.21;68.03
39699;BME280;25372;50.582;12.250;2023-04-28T15:40:01;99465.72;;;12.27;67.55
39699;BME280;25372;50.582;12.250;2023-04-28T15:50:22;99463.22;;;11.79;69.75
39699;BME280;25372;50.582;12.250;2023-04-28T16:00:44;99453.94;;;11.61;69.63
39699;BME280;25372;50.582;12.250;2023-04-28T16:11:05;99455.06;;;11.46;69.53
39699;BME280;25372;50.582;12.250;2023-04-28T16:21:27;99444.22;;;11.02;70.88
39699;BME280;25372;50.582;12.250;2023-04-28T16:31:48;99439.47;;;10.57;73.91
39699;BME280;25372;50.582;12.250;2023-04-28T16:42:10;99427.81;;;10.35;73.89
39699;BME280;25372;50.582;12.250;2023-04-28T16:52:31;99420.69;;;10.50;71.77
39699;BME280;25372;50.582;12.250;2023-04-28T17:02:53;99409.97;;;10.53;72.56
39699;BME280;25372;50.582;12.250;2023-04-28T17:13:13;99404.88;;;10.76;69.64
39699;BME280;25372;50.582;12.250;2023-04-28T17:23:35;99400.78;;;10.72;70.30
39699;BME280;25372;50.582;12.250;2023-04-28T17:33:56;99393.88;;;10.58;69.93
39699;BME280;25372;50.582;12.250;2023-04-28T17:44:19;99398.00;;;10.62;69.88
39699;BME280;25372;50.582;12.250;2023-04-28T17:54:40;99390.47;;;10.44;70.67
39699;BME280;25372;50.582;12.250;2023-04-28T18:05:03;99402.09;;;10.27;71.77
39699;BME280;25372;50.582;12.250;2023-04-28T18:15:25;99397.66;;;10.41;72.13
39699;BME280;25372;50.582;12.250;2023-04-28T18:25:47;99394.84;;;10.18;72.57
39699;BME280;25372;50.582;12.250;2023-04-28T18:36:08;99398.31;;;10.05;73.10
39699;BME280;25372;50.582;12.250;2023-04-28T18:46:30;99398.25;;;10.07;73.73
39699;BME280;25372;50.582;12.250;2023-04-28T18:56:52;99401.34;;;9.99;73.67
39699;BME280;25372;50.582;12.250;2023-04-28T19:07:18;99412.28;;;9.93;74.08
39699;BME280;25372;50.582;12.250;2023-04-28T19:17:39;99413.00;;;9.95;74.77
39699;BME280;25372;50.582;12.250;2023-04-28T19:28:01;99411.56;;;10.17;72.82
39699;BME280;25372;50.582;12.250;2023-04-28T19:38:22;99400.09;;;10.05;73.72
39699;BME280;25372;50.582;12.250;2023-04-28T19:48:44;99385.09;;;10.20;74.44
39699;BME280;25372;50.582;12.250;2023-04-28T19:59:05;99385.63;;;10.25;73.68
39699;BME280;25372;50.582;12.250;2023-04-28T20:09:27;99376.19;;;10.10;74.35
39699;BME280;25372;50.582;12.250;2023-04-28T20:19:48;99380.69;;;9.82;75.28
39699;BME280;25372;50.582;12.250;2023-04-28T20:30:10;99377.97;;;9.83;77.07
39699;BME280;25372;50.582;12.250;2023-04-28T20:40:31;99363.03;;;9.45;78.18
39699;BME280;25372;50.582;12.250;2023-04-28T20:50:54;99358.13;;;8.43;80.55
39699;BME280;25372;50.582;12.250;2023-04-28T21:01:15;99365.25;;;7.97;82.68
39699;BME280;25372;50.582;12.250;2023-04-28T21:11:37;99358.97;;;8.15;83.32
39699;BME280;25372;50.582;12.250;2023-04-28T21:21:59;99354.47;;;8.60;82.15
39699;BME280;25372;50.582;12.250;2023-04-28T21:32:22;99338.41;;;8.52;82.08
39699;BME280;25372;50.582;12.250;2023-04-28T21:42:42;99352.25;;;8.10;82.68
39699;BME280;25372;50.582;12.250;2023-04-28T21:53:04;99298.47;;;7.92;83.13
39699;BME280;25372;50.582;12.250;2023-04-28T22:03:25;99324.69;;;8.19;83.68
39699;BME280;25372;50.582;12.250;2023-04-28T22:13:48;99306.59;;;8.44;83.26
